Weather at Abu Dhabi International Airport

Public forecast

Using degrees Celsius for public forecast. Weather courtesy of forecast.io.

Current aviation weather report (METAR) for Abu Dhabi International Airport

Retrieved 2020/09/26 21:00 UTC (50 minutes ago):

OMAA 262100Z 09003KT CAVOK 30/27 Q1004 NOSIG

Aviation forecast (TAF) for Abu Dhabi International Airport

Retrieved 2020/09/26 18:11 UTC (4 hours ago):

TAF OMAA 261700Z 2618/2800 34009KT 8000 NSC BECMG 2618/2620 10005KT PROB30 2623/2704 3000 HZ BECMG 2708/2710 33012KT BECMG 2717/2719 08005KT